Time;durP1;ratioP1;P1;durP2;ratioP2;P2;SDS_P1;SDS_P2;PMS_P1;PMS_P2;Temp;Humidity;BMP_temperature;BMP_pressure;BME280_temperature;BME280_humidity;BME280_pressure;Samples;Min_cycle;Max_cycle;Signal;HPM_P1;HPM_P2
2023/01/20 00:00:47;;;;;;;56.30;17.63;;;;;;;;;;4996322;28;20056;-81
2023/01/20 00:03:12;;;;;;;52.77;17.77;;;;;;;;;;5013814;28;20022;-81
2023/01/20 00:05:38;;;;;;;51.77;17.97;;;;;;;;;;4995900;28;20022;-81
2023/01/20 00:08:03;;;;;;;47.70;17.53;;;;;;;;;;4996427;28;20018;-81
2023/01/20 00:10:28;;;;;;;47.67;16.40;;;;;;;;;;4995749;28;20022;-81
2023/01/20 00:12:53;;;;;;;45.87;15.93;;;;;;;;;;4996220;28;20466;-81
2023/01/20 00:15:18;;;;;;;48.07;17.90;;;;;;;;;;4996134;28;20032;-81
2023/01/20 00:17:44;;;;;;;50.87;18.00;;;;;;;;;;4996248;28;20026;-81
2023/01/20 00:20:09;;;;;;;51.10;18.37;;;;;;;;;;5012534;28;20462;-81
2023/01/20 00:22:40;;;;;;;46.97;17.83;;;;;;;;;;4996039;28;20026;-81
2023/01/20 00:25:06;;;;;;;54.73;18.23;;;;;;;;;;5013331;28;20022;-81
2023/01/20 00:27:31;;;;;;;47.77;17.07;;;;;;;;;;5013627;28;20036;-81
2023/01/20 00:29:56;;;;;;;60.80;20.33;;;;;;;;;;4995996;28;20069;-82
2023/01/20 00:32:21;;;;;;;56.67;17.57;;;;;;;;;;4995098;28;20362;-81
2023/01/20 00:34:47;;;;;;;44.53;15.33;;;;;;;;;;4995670;28;20097;-81
2023/01/20 00:37:12;;;;;;;55.87;16.10;;;;;;;;;;5013550;28;20492;-81
2023/01/20 00:39:37;;;;;;;52.10;16.63;;;;;;;;;;4995330;28;20022;-81
2023/01/20 00:42:02;;;;;;;49.27;16.57;;;;;;;;;;5013030;28;20014;-81
2023/01/20 00:44:27;;;;;;;53.67;17.50;;;;;;;;;;5012022;28;20038;-81
2023/01/20 00:46:53;;;;;;;49.00;15.90;;;;;;;;;;4996024;28;20022;-81
2023/01/20 00:49:18;;;;;;;44.60;17.23;;;;;;;;;;4995616;28;20423;-81
2023/01/20 00:51:43;;;;;;;42.33;15.53;;;;;;;;;;5013161;28;20039;-81
2023/01/20 00:54:08;;;;;;;47.00;16.63;;;;;;;;;;4995227;28;20025;-81
2023/01/20 00:56:34;;;;;;;51.00;16.33;;;;;;;;;;4993830;28;20465;-81
2023/01/20 00:58:59;;;;;;;49.70;16.57;;;;;;;;;;4995064;28;20053;-81
2023/01/20 01:01:24;;;;;;;42.70;14.33;;;;;;;;;;4994884;28;20104;-81
2023/01/20 01:03:52;;;;;;;46.90;15.97;;;;;;;;;;4995276;28;20491;-81
2023/01/20 01:06:18;;;;;;;51.13;17.93;;;;;;;;;;4995434;28;20496;-81
2023/01/20 01:08:43;;;;;;;45.67;15.90;;;;;;;;;;4994673;28;20018;-81
2023/01/20 01:11:10;;;;;;;45.40;16.07;;;;;;;;;;5012928;28;20040;-81
2023/01/20 01:13:37;;;;;;;42.73;15.17;;;;;;;;;;4994774;28;20017;-82
2023/01/20 01:16:02;;;;;;;35.90;14.07;;;;;;;;;;5012811;28;20025;-81
2023/01/20 01:18:27;;;;;;;41.80;14.20;;;;;;;;;;4994723;28;20105;-81
2023/01/20 01:20:53;;;;;;;39.37;14.80;;;;;;;;;;5011590;28;20515;-81
2023/01/20 01:23:18;;;;;;;45.47;16.00;;;;;;;;;;4995052;28;20137;-82
2023/01/20 01:25:43;;;;;;;43.17;15.63;;;;;;;;;;4994148;28;20168;-81
2023/01/20 01:28:08;;;;;;;42.17;16.63;;;;;;;;;;4994304;28;20022;-81
2023/01/20 01:30:34;;;;;;;39.37;13.60;;;;;;;;;;4994500;28;20326;-81
2023/01/20 01:32:59;;;;;;;39.13;15.23;;;;;;;;;;5010914;28;20033;-82
2023/01/20 01:35:24;;;;;;;38.37;13.73;;;;;;;;;;5012087;28;20018;-81
2023/01/20 01:37:49;;;;;;;38.33;14.93;;;;;;;;;;4994844;28;20014;-81
2023/01/20 01:40:14;;;;;;;36.83;14.57;;;;;;;;;;4994345;28;20026;-81
2023/01/20 01:42:40;;;;;;;34.20;13.10;;;;;;;;;;5012148;28;20018;-81
2023/01/20 01:45:08;;;;;;;35.90;12.77;;;;;;;;;;4990081;28;20459;-81
2023/01/20 01:47:34;;;;;;;35.73;13.63;;;;;;;;;;5009117;28;20535;-81
2023/01/20 01:49:59;;;;;;;36.30;14.70;;;;;;;;;;4994252;28;20018;-82
2023/01/20 01:52:24;;;;;;;37.93;15.07;;;;;;;;;;5012055;28;20030;-81
2023/01/20 01:54:50;;;;;;;39.00;14.37;;;;;;;;;;5011925;28;20084;-81
2023/01/20 01:57:15;;;;;;;42.50;14.30;;;;;;;;;;4993629;28;20403;-81
2023/01/20 01:59:42;;;;;;;45.20;14.33;;;;;;;;;;5011654;28;20474;-81
2023/01/20 02:02:07;;;;;;;41.70;14.30;;;;;;;;;;4994154;28;20373;-81
2023/01/20 02:04:33;;;;;;;35.67;13.43;;;;;;;;;;5011663;28;20018;-81
2023/01/20 02:07:04;;;;;;;36.33;13.10;;;;;;;;;;5011768;28;20089;-81
2023/01/20 02:09:29;;;;;;;43.43;13.87;;;;;;;;;;5011186;28;20033;-81
2023/01/20 02:11:57;;;;;;;43.73;17.37;;;;;;;;;;4994086;28;20377;-82
2023/01/20 02:14:30;;;;;;;34.93;13.87;;;;;;;;;;4993750;28;20022;-81
2023/01/20 02:16:58;;;;;;;45.13;15.55;;;;;;;;;;4993911;28;20022;-81
2023/01/20 02:19:29;;;;;;;37.67;14.30;;;;;;;;;;5011730;28;20029;-81
2023/01/20 02:22:13;;;;;;;41.40;14.63;;;;;;;;;;5007966;28;20034;-81
2023/01/20 02:24:57;;;;;;;41.20;15.03;;;;;;;;;;5010438;28;20048;-82
2023/01/20 02:27:36;;;;;;;42.83;16.07;;;;;;;;;;4993820;28;20029;-81
2023/01/20 02:30:11;;;;;;;41.13;14.47;;;;;;;;;;5011333;28;20022;-82
2023/01/20 02:32:45;;;;;;;45.43;16.60;;;;;;;;;;4993333;28;20029;-81
2023/01/20 02:35:13;;;;;;;46.40;16.33;;;;;;;;;;4993346;28;20022;-81
2023/01/20 02:38:08;;;;;;;44.10;17.60;;;;;;;;;;4993931;28;20104;-81
2023/01/20 02:40:43;;;;;;;42.33;15.80;;;;;;;;;;4976570;28;20089;-81
2023/01/20 02:43:19;;;;;;;41.60;14.73;;;;;;;;;;4993776;28;20044;-81
2023/01/20 02:46:07;;;;;;;42.70;14.87;;;;;;;;;;4992491;28;20026;-82
2023/01/20 02:48:43;;;;;;;42.93;16.70;;;;;;;;;;5005776;28;20043;-81
2023/01/20 02:51:11;;;;;;;43.13;14.93;;;;;;;;;;4997590;28;20053;-81
2023/01/20 02:53:42;;;;;;;41.03;15.63;;;;;;;;;;4997498;28;20338;-81
2023/01/20 02:56:08;;;;;;;45.23;16.43;;;;;;;;;;4997715;28;20030;-81
2023/01/20 02:58:42;;;;;;;43.27;14.53;;;;;;;;;;4996267;28;20026;-82
2023/01/20 03:01:15;;;;;;;45.10;15.50;;;;;;;;;;5013397;28;20057;-81
2023/01/20 03:03:43;;;;;;;47.77;16.73;;;;;;;;;;4997554;28;20025;-81
2023/01/20 03:06:11;;;;;;;46.60;15.47;;;;;;;;;;5015030;28;20021;-81
2023/01/20 03:08:38;;;;;;;44.73;15.03;;;;;;;;;;5014203;28;20088;-81
2023/01/20 03:11:05;;;;;;;40.67;13.73;;;;;;;;;;4997311;28;20047;-81
2023/01/20 03:13:30;;;;;;;48.03;15.23;;;;;;;;;;4997101;28;20546;-81
2023/01/20 03:15:58;;;;;;;47.53;16.40;;;;;;;;;;4997029;28;20116;-81
2023/01/20 03:18:23;;;;;;;44.50;14.67;;;;;;;;;;4996981;28;20022;-81
2023/01/20 03:20:48;;;;;;;45.53;15.60;;;;;;;;;;4995993;28;20029;-81
2023/01/20 03:23:14;;;;;;;40.87;15.03;;;;;;;;;;5013473;28;20108;-81
2023/01/20 03:25:39;;;;;;;48.47;16.23;;;;;;;;;;4996988;28;20014;-81
2023/01/20 03:28:04;;;;;;;42.87;13.13;;;;;;;;;;4997021;28;20025;-81
2023/01/20 03:30:30;;;;;;;44.60;14.17;;;;;;;;;;4996993;28;20025;-81
2023/01/20 03:32:55;;;;;;;50.50;17.27;;;;;;;;;;4997052;28;20022;-81
2023/01/20 03:35:20;;;;;;;44.37;16.30;;;;;;;;;;4996759;28;20025;-81
2023/01/20 03:37:46;;;;;;;37.93;14.33;;;;;;;;;;4996635;28;20052;-81
2023/01/20 03:40:11;;;;;;;41.23;13.33;;;;;;;;;;5014213;28;20072;-82
2023/01/20 03:42:40;;;;;;;41.07;15.67;;;;;;;;;;4995997;28;20044;-81
2023/01/20 03:45:12;;;;;;;36.90;12.80;;;;;;;;;;5007374;28;20385;-81
2023/01/20 03:47:57;;;;;;;39.80;15.53;;;;;;;;;;5014462;28;20084;-81
2023/01/20 03:50:30;;;;;;;40.83;13.37;;;;;;;;;;4996502;28;20047;-81
2023/01/20 03:53:03;;;;;;;46.17;13.83;;;;;;;;;;4996520;28;20018;-82
2023/01/20 03:55:41;;;;;;;35.50;12.97;;;;;;;;;;4995570;28;20041;-81
2023/01/20 03:58:09;;;;;;;39.43;13.97;;;;;;;;;;4995809;28;20396;-81
2023/01/20 04:00:35;;;;;;;41.20;13.03;;;;;;;;;;5013842;28;20025;-81
2023/01/20 04:03:02;;;;;;;44.37;14.60;;;;;;;;;;5014052;28;20021;-81
2023/01/20 04:05:28;;;;;;;40.40;15.57;;;;;;;;;;5013789;28;20810;-81
2023/01/20 04:07:55;;;;;;;38.43;13.23;;;;;;;;;;4995698;28;20100;-81
2023/01/20 04:10:21;;;;;;;38.40;13.10;;;;;;;;;;4996068;28;20392;-81
2023/01/20 04:12:46;;;;;;;36.13;14.50;;;;;;;;;;4996142;28;20022;-81
2023/01/20 04:15:11;;;;;;;41.60;13.20;;;;;;;;;;4996091;28;20060;-83
2023/01/20 04:17:37;;;;;;;38.27;12.03;;;;;;;;;;5013742;28;20097;-83
2023/01/20 04:20:05;;;;;;;41.00;13.23;;;;;;;;;;4993835;28;20060;-82
2023/01/20 04:22:49;;;;;;;33.17;11.37;;;;;;;;;;4995832;28;20422;-81
2023/01/20 04:25:27;;;;;;;34.80;13.23;;;;;;;;;;4995868;28;20041;-82
2023/01/20 04:27:52;;;;;;;32.30;12.27;;;;;;;;;;4995951;28;20461;-81
2023/01/20 04:30:17;;;;;;;37.90;13.63;;;;;;;;;;4994778;28;20032;-82
2023/01/20 04:32:42;;;;;;;34.30;11.13;;;;;;;;;;4995629;28;20080;-82
2023/01/20 04:35:15;;;;;;;35.50;11.23;;;;;;;;;;4996100;28;20112;-82
2023/01/20 04:37:40;;;;;;;37.00;13.00;;;;;;;;;;5013428;28;20033;-83
2023/01/20 04:40:06;;;;;;;40.73;13.00;;;;;;;;;;5012972;28;20022;-82
2023/01/20 04:42:31;;;;;;;36.17;12.50;;;;;;;;;;4994698;28;20022;-81
2023/01/20 04:44:56;;;;;;;38.83;15.57;;;;;;;;;;5011959;28;20029;-82
2023/01/20 04:47:22;;;;;;;35.27;12.20;;;;;;;;;;4995515;28;20352;-81
2023/01/20 04:49:47;;;;;;;34.73;10.93;;;;;;;;;;4995171;28;20029;-82
2023/01/20 04:52:12;;;;;;;41.97;12.47;;;;;;;;;;5013438;28;20014;-82
2023/01/20 04:54:37;;;;;;;34.80;12.57;;;;;;;;;;4993219;28;20045;-82
2023/01/20 04:57:02;;;;;;;36.60;12.00;;;;;;;;;;4995201;28;20045;-82
2023/01/20 04:59:28;;;;;;;33.90;11.40;;;;;;;;;;4995078;28;20020;-82
2023/01/20 05:01:53;;;;;;;42.13;12.97;;;;;;;;;;5012989;28;20108;-82
2023/01/20 05:04:18;;;;;;;33.80;12.40;;;;;;;;;;5012711;28;20041;-81
2023/01/20 05:06:43;;;;;;;34.83;11.80;;;;;;;;;;4994904;28;20025;-82
2023/01/20 05:09:12;;;;;;;31.87;12.53;;;;;;;;;;4993893;28;20022;-82
2023/01/20 05:11:38;;;;;;;33.53;11.73;;;;;;;;;;4994991;28;20116;-82
2023/01/20 05:14:03;;;;;;;35.60;12.60;;;;;;;;;;5012522;28;20397;-82
2023/01/20 05:16:30;;;;;;;43.27;13.23;;;;;;;;;;4994711;28;20033;-82
2023/01/20 05:18:56;;;;;;;37.83;11.80;;;;;;;;;;4994508;28;20504;-82
2023/01/20 05:21:21;;;;;;;41.17;13.27;;;;;;;;;;4994601;28;20014;-82
2023/01/20 05:23:46;;;;;;;41.87;13.20;;;;;;;;;;4994785;28;20354;-82
2023/01/20 05:26:11;;;;;;;32.97;10.80;;;;;;;;;;5011453;28;20052;-82
2023/01/20 05:28:37;;;;;;;32.10;11.43;;;;;;;;;;5012336;28;20484;-82
2023/01/20 05:31:02;;;;;;;42.87;13.00;;;;;;;;;;4995135;28;20040;-82
2023/01/20 05:33:27;;;;;;;38.20;11.77;;;;;;;;;;4994676;28;20041;-82
2023/01/20 05:35:52;;;;;;;32.43;12.00;;;;;;;;;;4994765;28;20022;-82
2023/01/20 05:38:17;;;;;;;32.90;10.37;;;;;;;;;;5011277;28;20048;-83
2023/01/20 05:40:43;;;;;;;32.77;11.20;;;;;;;;;;5012291;28;20033;-82
2023/01/20 05:43:08;;;;;;;34.33;10.90;;;;;;;;;;4994576;28;20040;-82
2023/01/20 05:45:33;;;;;;;36.07;13.63;;;;;;;;;;4990808;28;20022;-82
2023/01/20 05:47:58;;;;;;;26.93;11.10;;;;;;;;;;4994413;28;20022;-82
2023/01/20 05:50:25;;;;;;;32.00;11.90;;;;;;;;;;4993566;28;20026;-82
2023/01/20 05:52:50;;;;;;;44.83;14.73;;;;;;;;;;4994578;28;20033;-82
2023/01/20 05:55:15;;;;;;;30.30;11.20;;;;;;;;;;4994116;28;20473;-82
2023/01/20 05:57:40;;;;;;;37.07;12.17;;;;;;;;;;4994653;28;20022;-82
2023/01/20 06:00:06;;;;;;;36.60;13.77;;;;;;;;;;4994190;28;20036;-82
2023/01/20 06:02:31;;;;;;;37.77;12.80;;;;;;;;;;4993086;28;20075;-82
2023/01/20 06:05:00;;;;;;;34.70;13.30;;;;;;;;;;5011734;28;20329;-82
2023/01/20 06:07:25;;;;;;;37.93;13.40;;;;;;;;;;4994324;28;20022;-82
2023/01/20 06:09:51;;;;;;;43.20;13.73;;;;;;;;;;5011696;28;20026;-82
2023/01/20 06:12:16;;;;;;;36.43;13.53;;;;;;;;;;4993950;28;20041;-82
2023/01/20 06:14:41;;;;;;;35.57;13.73;;;;;;;;;;4994040;28;20025;-82
2023/01/20 06:17:06;;;;;;;42.03;14.67;;;;;;;;;;5012092;28;20029;-82
2023/01/20 06:19:31;;;;;;;41.23;14.43;;;;;;;;;;4993652;28;20033;-82
2023/01/20 06:21:57;;;;;;;35.13;12.23;;;;;;;;;;5011851;28;20022;-82
2023/01/20 06:24:22;;;;;;;38.67;13.90;;;;;;;;;;4992690;28;20033;-82
2023/01/20 06:26:49;;;;;;;40.87;13.00;;;;;;;;;;4994037;28;20032;-82
2023/01/20 06:29:14;;;;;;;34.87;12.57;;;;;;;;;;4993642;28;20042;-82
2023/01/20 06:31:39;;;;;;;36.77;11.97;;;;;;;;;;4994065;28;20025;-82
2023/01/20 06:34:04;;;;;;;39.93;14.47;;;;;;;;;;5010635;28;20446;-82
2023/01/20 06:36:30;;;;;;;41.00;14.70;;;;;;;;;;5011672;28;20040;-82
2023/01/20 06:38:55;;;;;;;40.43;13.90;;;;;;;;;;4994562;28;20022;-90
2023/01/20 06:41:20;;;;;;;41.17;13.87;;;;;;;;;;4994747;28;20204;-89
2023/01/20 06:43:45;;;;;;;35.60;12.57;;;;;;;;;;5012459;28;20455;-89
2023/01/20 06:46:12;;;;;;;36.30;13.53;;;;;;;;;;5011522;28;20022;-89
2023/01/20 06:48:37;;;;;;;40.13;14.03;;;;;;;;;;4994524;28;20089;-90
2023/01/20 06:51:04;;;;;;;36.13;14.13;;;;;;;;;;5010951;28;20093;-89
2023/01/20 06:53:29;;;;;;;40.80;15.23;;;;;;;;;;5011996;28;20029;-89
2023/01/20 06:55:55;;;;;;;42.90;15.03;;;;;;;;;;4994604;28;20014;-89
2023/01/20 06:58:21;;;;;;;40.60;13.77;;;;;;;;;;5011132;28;20014;-89
2023/01/20 07:00:46;;;;;;;41.90;13.20;;;;;;;;;;4994769;28;20084;-89
2023/01/20 07:03:12;;;;;;;32.57;12.33;;;;;;;;;;4994464;28;20462;-89
2023/01/20 07:05:37;;;;;;;32.50;13.20;;;;;;;;;;4993658;28;20053;-89
2023/01/20 07:08:02;;;;;;;41.13;13.77;;;;;;;;;;5012432;28;20056;-89
2023/01/20 07:10:27;;;;;;;31.60;12.60;;;;;;;;;;4994460;28;20026;-90
2023/01/20 07:12:52;;;;;;;33.17;12.17;;;;;;;;;;5011958;28;20014;-90
2023/01/20 07:15:18;;;;;;;38.20;12.63;;;;;;;;;;5011946;28;20040;-90
2023/01/20 07:17:43;;;;;;;36.43;15.37;;;;;;;;;;4993893;28;20442;-89
2023/01/20 07:20:09;;;;;;;36.70;13.90;;;;;;;;;;4994862;28;20095;-89
2023/01/20 07:22:34;;;;;;;31.60;11.70;;;;;;;;;;5011196;28;20014;-89
2023/01/20 07:24:59;;;;;;;37.43;10.87;;;;;;;;;;4994115;28;20014;-89
2023/01/20 07:27:24;;;;;;;36.93;14.10;;;;;;;;;;4994030;28;20026;-89
2023/01/20 07:29:50;;;;;;;30.50;12.37;;;;;;;;;;4994012;28;20025;-89
2023/01/20 07:32:15;;;;;;;34.63;13.43;;;;;;;;;;5012908;28;20482;-89
2023/01/20 07:34:40;;;;;;;39.73;15.03;;;;;;;;;;4997014;28;20135;-89
2023/01/20 07:37:05;;;;;;;29.53;11.00;;;;;;;;;;4998019;28;20106;-89
2023/01/20 07:39:30;;;;;;;38.33;12.97;;;;;;;;;;5014907;28;20041;-89
2023/01/20 07:41:56;;;;;;;37.13;13.13;;;;;;;;;;4998064;28;20512;-89
2023/01/20 07:44:21;;;;;;;34.30;15.43;;;;;;;;;;4998020;28;20025;-89
2023/01/20 07:46:46;;;;;;;36.47;13.23;;;;;;;;;;4995761;28;20498;-90
2023/01/20 07:49:11;;;;;;;39.47;14.73;;;;;;;;;;5015047;28;20060;-90
2023/01/20 07:51:38;;;;;;;39.40;13.83;;;;;;;;;;4997019;28;20411;-90
2023/01/20 07:54:04;;;;;;;43.00;15.17;;;;;;;;;;4997472;28;20057;-90
2023/01/20 07:56:29;;;;;;;42.00;16.33;;;;;;;;;;5014910;28;20046;-90
2023/01/20 07:58:55;;;;;;;40.63;14.00;;;;;;;;;;4995741;28;20385;-90
2023/01/20 08:01:21;;;;;;;37.87;14.60;;;;;;;;;;5014757;28;20452;-90
2023/01/20 08:03:47;;;;;;;41.23;15.80;;;;;;;;;;4997171;28;20026;-90
2023/01/20 08:06:14;;;;;;;37.13;14.80;;;;;;;;;;5013981;28;20029;-89
2023/01/20 08:08:39;;;;;;;34.23;13.67;;;;;;;;;;5013853;28;20034;-88
2023/01/20 08:11:05;;;;;;;32.73;12.40;;;;;;;;;;5014092;28;20076;-89
2023/01/20 08:13:31;;;;;;;34.20;13.33;;;;;;;;;;5014253;28;20053;-89
2023/01/20 08:16:00;;;;;;;40.27;14.70;;;;;;;;;;4997232;28;20046;-89
2023/01/20 08:18:25;;;;;;;35.93;14.40;;;;;;;;;;4996698;28;20088;-89
2023/01/20 08:20:50;;;;;;;36.43;14.80;;;;;;;;;;5013468;28;20026;-89
2023/01/20 08:23:16;;;;;;;37.83;15.70;;;;;;;;;;5014032;28;20057;-89
2023/01/20 08:25:41;;;;;;;34.17;13.73;;;;;;;;;;4996693;28;20068;-89
2023/01/20 08:28:07;;;;;;;36.97;14.17;;;;;;;;;;5014002;28;20017;-90
2023/01/20 08:30:32;;;;;;;35.70;13.67;;;;;;;;;;5014328;28;20026;-90
2023/01/20 08:32:57;;;;;;;34.77;12.20;;;;;;;;;;4996249;28;20025;-90
2023/01/20 08:35:22;;;;;;;33.20;12.73;;;;;;;;;;4993951;28;20030;-90
2023/01/20 08:37:47;;;;;;;37.40;13.57;;;;;;;;;;4996688;28;20098;-89
2023/01/20 08:40:13;;;;;;;37.03;15.17;;;;;;;;;;4996561;28;20036;-90
2023/01/20 08:42:38;;;;;;;40.67;15.33;;;;;;;;;;5014279;28;20153;-89
2023/01/20 08:45:05;;;;;;;38.70;15.90;;;;;;;;;;5012920;28;20037;-90
2023/01/20 08:47:30;;;;;;;36.53;14.03;;;;;;;;;;4995670;28;20108;-90
2023/01/20 08:49:55;;;;;;;44.97;16.10;;;;;;;;;;4994538;28;20121;-89
2023/01/20 08:52:21;;;;;;;35.33;15.10;;;;;;;;;;5013761;28;20049;-89
2023/01/20 08:54:46;;;;;;;34.97;15.10;;;;;;;;;;5013870;28;20030;-89
2023/01/20 08:57:11;;;;;;;37.27;15.00;;;;;;;;;;5012159;28;20076;-89
2023/01/20 08:59:36;;;;;;;39.13;14.47;;;;;;;;;;4995465;28;20512;-89
2023/01/20 09:02:02;;;;;;;35.37;14.57;;;;;;;;;;4995571;28;20026;-90
2023/01/20 09:04:27;;;;;;;36.80;14.90;;;;;;;;;;5013308;28;20046;-90
2023/01/20 09:06:52;;;;;;;38.93;14.43;;;;;;;;;;4996276;28;20029;-90
2023/01/20 09:09:19;;;;;;;30.80;12.80;;;;;;;;;;4995935;28;20351;-89
2023/01/20 09:11:49;;;;;;;32.67;13.67;;;;;;;;;;4995421;28;20798;-90
2023/01/20 09:14:15;;;;;;;38.23;15.33;;;;;;;;;;4995705;28;20091;-90
2023/01/20 09:16:40;;;;;;;34.70;14.13;;;;;;;;;;4995798;28;20126;-89
2023/01/20 09:19:05;;;;;;;29.47;13.13;;;;;;;;;;4995690;28;20361;-90
2023/01/20 09:21:30;;;;;;;36.17;14.57;;;;;;;;;;4995971;28;20397;-90
2023/01/20 09:23:55;;;;;;;33.37;13.97;;;;;;;;;;5011548;28;20113;-90
2023/01/20 09:26:21;;;;;;;33.87;12.80;;;;;;;;;;4995578;28;20014;-90
2023/01/20 09:28:46;;;;;;;37.20;14.87;;;;;;;;;;4995775;28;20024;-89
2023/01/20 09:31:12;;;;;;;31.60;14.20;;;;;;;;;;5013390;28;20420;-90
2023/01/20 09:33:38;;;;;;;35.67;13.17;;;;;;;;;;4995792;28;20105;-90
2023/01/20 09:36:04;;;;;;;34.13;14.47;;;;;;;;;;4995021;28;20532;-90
2023/01/20 09:44:46;;;;;;;34.33;13.67;;;;;;;;;;4933114;29;20032;-91
2023/01/20 09:47:20;;;;;;;34.40;12.07;;;;;;;;;;4933569;29;20035;-90
2023/01/20 09:55:39;;;;;;;31.93;13.03;;;;;;;;;;4950787;28;20111;-90
2023/01/20 09:58:04;;;;;;;33.33;12.13;;;;;;;;;;5012063;28;20022;-91
2023/01/20 10:00:32;;;;;;;33.03;13.33;;;;;;;;;;5012904;28;20037;-90
2023/01/20 10:03:18;;;;;;;30.83;13.17;;;;;;;;;;4995631;28;20052;-91
2023/01/20 10:05:43;;;;;;;32.70;14.27;;;;;;;;;;4965429;28;20044;-90
2023/01/20 10:08:15;;;;;;;31.33;13.30;;;;;;;;;;5012351;28;20026;-90
2023/01/20 10:10:54;;;;;;;40.55;14.27;;;;;;;;;;4995454;28;20040;-91
2023/01/20 10:13:25;;;;;;;40.47;14.33;;;;;;;;;;5013046;28;20076;-91
2023/01/20 10:15:54;;;;;;;34.07;13.90;;;;;;;;;;4995289;28;20161;-91
2023/01/20 10:18:28;;;;;;;33.30;14.37;;;;;;;;;;4995129;28;20112;-91
2023/01/20 10:21:05;;;;;;;36.93;14.43;;;;;;;;;;4994476;28;20020;-91
2023/01/20 10:23:36;;;;;;;30.93;12.33;;;;;;;;;;5012739;28;20053;-91
2023/01/20 10:26:17;;;;;;;36.87;14.13;;;;;;;;;;4993613;28;20015;-90
2023/01/20 10:28:46;;;;;;;37.70;14.83;;;;;;;;;;5010840;28;20420;-91
2023/01/20 10:31:13;;;;;;;36.03;14.63;;;;;;;;;;4994501;28;20017;-90
2023/01/20 10:33:43;;;;;;;38.07;13.53;;;;;;;;;;4993390;28;20050;-90
2023/01/20 10:36:24;;;;;;;33.17;13.10;;;;;;;;;;4995309;28;20470;-90
2023/01/20 10:38:55;;;;;;;33.30;11.90;;;;;;;;;;4994517;28;20021;-91
2023/01/20 10:41:29;;;;;;;36.53;13.37;;;;;;;;;;5011843;28;20119;-90
2023/01/20 10:43:55;;;;;;;29.23;11.33;;;;;;;;;;5001716;28;20025;-91
2023/01/20 10:46:23;;;;;;;27.50;11.10;;;;;;;;;;5012117;28;20010;-90
2023/01/20 10:48:48;;;;;;;30.33;11.40;;;;;;;;;;5012486;28;20006;-90
2023/01/20 10:51:32;;;;;;;29.73;12.07;;;;;;;;;;5012697;28;20369;-90
2023/01/20 10:54:13;;;;;;;29.43;12.50;;;;;;;;;;4994220;28;20056;-91
2023/01/20 10:56:42;;;;;;;35.27;12.83;;;;;;;;;;4994595;28;20046;-90
2023/01/20 10:59:31;;;;;;;27.43;11.47;;;;;;;;;;5012391;28;20048;-91
2023/01/20 11:01:58;;;;;;;31.63;10.83;;;;;;;;;;5004203;28;20033;-91
2023/01/20 11:04:27;;;;;;;28.73;12.50;;;;;;;;;;4994828;28;20396;-90
2023/01/20 11:06:56;;;;;;;27.53;11.50;;;;;;;;;;5013508;28;20062;-90
2023/01/20 11:09:32;;;;;;;25.60;11.33;;;;;;;;;;4998176;28;20094;-90
2023/01/20 11:11:58;;;;;;;30.13;12.63;;;;;;;;;;4998375;28;20137;-91
2023/01/20 11:14:23;;;;;;;28.70;11.87;;;;;;;;;;4998303;28;20109;-90
2023/01/20 11:16:53;;;;;;;25.27;11.53;;;;;;;;;;5015467;28;20060;-90
2023/01/20 11:19:18;;;;;;;28.20;11.50;;;;;;;;;;5015825;28;20425;-89
2023/01/20 11:21:43;;;;;;;27.07;10.17;;;;;;;;;;4998374;28;20026;-90
2023/01/20 11:24:27;;;;;;;26.33;10.27;;;;;;;;;;4998232;28;20026;-91
2023/01/20 11:27:01;;;;;;;32.70;12.67;;;;;;;;;;4998663;28;20381;-91
2023/01/20 11:29:27;;;;;;;30.87;10.50;;;;;;;;;;4997393;28;20031;-91
2023/01/20 11:31:57;;;;;;;24.77;10.80;;;;;;;;;;5015608;28;20433;-90
2023/01/20 11:34:22;;;;;;;26.60;10.07;;;;;;;;;;4997956;28;20032;-91
2023/01/20 11:36:48;;;;;;;29.17;10.87;;;;;;;;;;4997982;28;20101;-91
2023/01/20 11:39:28;;;;;;;25.63;10.27;;;;;;;;;;4996801;28;20116;-91
2023/01/20 11:42:12;;;;;;;29.50;11.60;;;;;;;;;;4984918;28;20029;-90
2023/01/20 11:44:43;;;;;;;24.37;9.90;;;;;;;;;;5011335;28;20549;-90
2023/01/20 11:47:19;;;;;;;28.02;10.55;;;;;;;;;;4997959;28;20015;-91
2023/01/20 11:49:44;;;;;;;23.60;10.73;;;;;;;;;;5014387;28;20022;-90
2023/01/20 11:52:18;;;;;;;23.33;10.70;;;;;;;;;;5014504;28;20043;-91
2023/01/20 11:54:44;;;;;;;21.20;9.17;;;;;;;;;;5015840;28;20350;-90
2023/01/20 11:57:11;;;;;;;20.13;9.20;;;;;;;;;;4997713;28;20045;-90
2023/01/20 11:59:45;;;;;;;19.20;9.63;;;;;;;;;;5015227;28;20083;-90
2023/01/20 12:02:11;;;;;;;20.47;8.63;;;;;;;;;;4996742;28;20022;-90
2023/01/20 12:04:39;;;;;;;14.20;6.97;;;;;;;;;;5014594;28;20022;-91
2023/01/20 12:07:06;;;;;;;16.60;7.53;;;;;;;;;;4997899;28;20381;-90
2023/01/20 12:09:43;;;;;;;14.23;6.63;;;;;;;;;;4983940;28;20477;-90
2023/01/20 12:12:27;;;;;;;15.10;5.87;;;;;;;;;;5014306;28;20033;-90
2023/01/20 12:15:22;;;;;;;13.03;5.50;;;;;;;;;;5002082;28;20063;-90
2023/01/20 12:17:47;;;;;;;13.97;6.13;;;;;;;;;;4992277;28;20052;-90
2023/01/20 12:20:12;;;;;;;10.50;4.97;;;;;;;;;;4997207;28;20470;-90
2023/01/20 12:22:50;;;;;;;10.77;5.07;;;;;;;;;;4996805;28;20072;-90
2023/01/20 12:25:18;;;;;;;12.57;6.13;;;;;;;;;;5014561;28;20101;-90
2023/01/20 12:28:04;;;;;;;13.07;5.80;;;;;;;;;;5014552;28;20013;-89
2023/01/20 12:30:41;;;;;;;8.63;5.13;;;;;;;;;;5006993;28;20540;-90
2023/01/20 12:33:17;;;;;;;10.50;4.90;;;;;;;;;;5013851;28;20045;-90
2023/01/20 12:35:45;;;;;;;11.17;4.90;;;;;;;;;;5014497;28;20033;-90
2023/01/20 12:38:16;;;;;;;10.23;5.13;;;;;;;;;;4996896;28;20060;-90
2023/01/20 12:40:42;;;;;;;11.90;5.50;;;;;;;;;;4996842;28;20096;-90
2023/01/20 12:43:17;;;;;;;10.67;5.57;;;;;;;;;;4996813;28;20018;-90
2023/01/20 12:45:45;;;;;;;10.73;4.83;;;;;;;;;;4996499;28;20022;-90
2023/01/20 12:48:30;;;;;;;11.50;5.13;;;;;;;;;;4996708;28;20018;-90
2023/01/20 12:50:55;;;;;;;9.97;4.90;;;;;;;;;;4993343;28;20080;-91
2023/01/20 12:53:41;;;;;;;9.10;5.17;;;;;;;;;;4993430;28;20402;-90
2023/01/20 12:56:12;;;;;;;10.90;5.40;;;;;;;;;;4996714;28;20358;-90
2023/01/20 12:58:49;;;;;;;14.47;5.83;;;;;;;;;;4995748;28;20493;-89
2023/01/20 13:01:33;;;;;;;11.10;5.00;;;;;;;;;;4996638;28;20750;-90
2023/01/20 13:03:58;;;;;;;13.23;5.73;;;;;;;;;;4996149;28;20017;-89
2023/01/20 13:06:29;;;;;;;12.50;5.80;;;;;;;;;;5006400;28;20014;-90
2023/01/20 13:08:58;;;;;;;11.63;6.10;;;;;;;;;;4992944;28;20125;-89
2023/01/20 13:11:30;;;;;;;11.17;5.47;;;;;;;;;;4996372;28;20018;-90
2023/01/20 13:13:55;;;;;;;10.37;4.70;;;;;;;;;;5013402;28;20017;-89
2023/01/20 13:16:35;;;;;;;8.47;4.80;;;;;;;;;;4995580;28;20339;-90
2023/01/20 13:19:22;;;;;;;9.07;4.67;;;;;;;;;;5013964;28;20056;-90
2023/01/20 13:21:49;;;;;;;9.03;4.60;;;;;;;;;;5013945;28;20052;-90
2023/01/20 13:24:18;;;;;;;7.43;4.07;;;;;;;;;;5013518;28;20101;-90
2023/01/20 13:26:45;;;;;;;11.30;3.93;;;;;;;;;;5013817;28;20488;-89
2023/01/20 13:29:21;;;;;;;6.80;3.37;;;;;;;;;;5012188;28;20331;-89
2023/01/20 13:31:48;;;;;;;5.57;3.30;;;;;;;;;;4999630;28;20018;-90
2023/01/20 13:34:20;;;;;;;6.87;3.47;;;;;;;;;;5013417;28;20025;-90
2023/01/20 13:37:11;;;;;;;6.37;3.30;;;;;;;;;;4995763;28;20018;-90
2023/01/20 13:39:46;;;;;;;5.93;3.10;;;;;;;;;;4986322;28;20097;-90
2023/01/20 13:42:41;;;;;;;6.80;3.37;;;;;;;;;;5013393;28;20022;-89
2023/01/20 13:45:12;;;;;;;6.63;3.40;;;;;;;;;;5004354;28;20106;-90
2023/01/20 13:47:49;;;;;;;11.53;4.97;;;;;;;;;;5013329;28;20112;-89
2023/01/20 13:50:23;;;;;;;22.67;7.97;;;;;;;;;;5012073;28;20765;-89
2023/01/20 13:52:48;;;;;;;9.00;4.20;;;;;;;;;;4995398;28;20090;-89
2023/01/20 13:55:29;;;;;;;6.93;4.17;;;;;;;;;;5012706;28;20024;-89
2023/01/20 13:57:55;;;;;;;10.43;5.00;;;;;;;;;;4995320;28;20018;-90
2023/01/20 14:00:21;;;;;;;9.87;4.83;;;;;;;;;;4994984;28;20022;-89
2023/01/20 14:02:47;;;;;;;15.20;5.40;;;;;;;;;;4995207;28;20588;-89
2023/01/20 14:05:23;;;;;;;8.63;4.30;;;;;;;;;;5012858;28;20026;-89
2023/01/20 14:07:48;;;;;;;18.40;7.80;;;;;;;;;;4995471;28;20329;-89
2023/01/20 14:10:13;;;;;;;14.80;6.23;;;;;;;;;;4995018;28;20033;-89
2023/01/20 14:12:39;;;;;;;9.87;5.27;;;;;;;;;;4995346;28;20021;-89
2023/01/20 14:15:05;;;;;;;11.47;4.83;;;;;;;;;;5012078;28;20025;-89
2023/01/20 14:17:30;;;;;;;15.17;7.03;;;;;;;;;;5012849;28;20026;-89
2023/01/20 14:19:55;;;;;;;13.37;7.17;;;;;;;;;;4994965;28;20088;-89
2023/01/20 14:22:25;;;;;;;8.57;4.87;;;;;;;;;;5012750;28;20018;-90
2023/01/20 14:24:51;;;;;;;7.20;3.83;;;;;;;;;;5012731;28;20021;-89
2023/01/20 14:27:26;;;;;;;7.83;4.10;;;;;;;;;;5010779;28;20025;-89
2023/01/20 14:29:52;;;;;;;5.40;3.27;;;;;;;;;;4995546;28;20120;-90
2023/01/20 14:32:20;;;;;;;5.93;3.53;;;;;;;;;;4994929;28;20113;-89
2023/01/20 14:34:46;;;;;;;9.00;4.60;;;;;;;;;;4995058;28;20018;-90
2023/01/20 14:37:27;;;;;;;9.13;5.07;;;;;;;;;;5012681;28;20128;-89
2023/01/20 14:39:55;;;;;;;7.47;4.20;;;;;;;;;;4992686;28;20018;-89